sensor_id;sensor_type;location;lat;lon;timestamp;P1;durP1;ratioP1;P2;durP2;ratioP2
12232;SDS011;6179;51.748;8.728;2023-02-28T00:00:03;4.97;;;1.73;;
12232;SDS011;6179;51.748;8.728;2023-02-28T00:06:09;1.27;;;0.50;;
12232;SDS011;6179;51.748;8.728;2023-02-28T00:12:10;0.80;;;0.50;;
12232;SDS011;6179;51.748;8.728;2023-02-28T00:18:12;0.43;;;0.43;;
12232;SDS011;6179;51.748;8.728;2023-02-28T00:24:13;3.07;;;0.40;;
12232;SDS011;6179;51.748;8.728;2023-02-28T00:30:15;0.30;;;0.30;;
12232;SDS011;6179;51.748;8.728;2023-02-28T00:36:19;3.90;;;0.50;;
12232;SDS011;6179;51.748;8.728;2023-02-28T00:42:20;1.17;;;0.53;;
12232;SDS011;6179;51.748;8.728;2023-02-28T00:48:21;2.00;;;0.80;;
12232;SDS011;6179;51.748;8.728;2023-02-28T00:54:22;0.80;;;0.60;;
12232;SDS011;6179;51.748;8.728;2023-02-28T01:00:24;1.63;;;0.67;;
12232;SDS011;6179;51.748;8.728;2023-02-28T01:06:25;0.50;;;0.30;;
12232;SDS011;6179;51.748;8.728;2023-02-28T01:12:25;1.00;;;0.60;;
12232;SDS011;6179;51.748;8.728;2023-02-28T01:18:26;2.60;;;0.83;;
12232;SDS011;6179;51.748;8.728;2023-02-28T01:24:28;0.70;;;0.40;;
12232;SDS011;6179;51.748;8.728;2023-02-28T01:30:29;3.47;;;1.07;;
12232;SDS011;6179;51.748;8.728;2023-02-28T01:36:30;1.60;;;1.03;;
12232;SDS011;6179;51.748;8.728;2023-02-28T01:42:31;1.70;;;0.90;;
12232;SDS011;6179;51.748;8.728;2023-02-28T01:48:32;7.20;;;0.50;;
12232;SDS011;6179;51.748;8.728;2023-02-28T01:54:38;0.40;;;0.30;;
12232;SDS011;6179;51.748;8.728;2023-02-28T02:00:39;1.83;;;0.30;;
12232;SDS011;6179;51.748;8.728;2023-02-28T02:06:43;0.40;;;0.40;;
12232;SDS011;6179;51.748;8.728;2023-02-28T02:26:27;0.50;;;0.50;;
12232;SDS011;6179;51.748;8.728;2023-02-28T02:46:19;0.90;;;0.40;;
12232;SDS011;6179;51.748;8.728;2023-02-28T02:52:31;0.50;;;0.40;;
12232;SDS011;6179;51.748;8.728;2023-02-28T02:58:40;1.47;;;0.60;;
12232;SDS011;6179;51.748;8.728;2023-02-28T03:04:48;0.30;;;0.30;;
12232;SDS011;6179;51.748;8.728;2023-02-28T03:10:57;0.80;;;0.53;;
12232;SDS011;6179;51.748;8.728;2023-02-28T03:23:17;0.30;;;0.30;;
12232;SDS011;6179;51.748;8.728;2023-02-28T03:29:25;0.43;;;0.40;;
12232;SDS011;6179;51.748;8.728;2023-02-28T03:42:04;2.53;;;0.50;;
12232;SDS011;6179;51.748;8.728;2023-02-28T03:48:19;0.30;;;0.30;;
12232;SDS011;6179;51.748;8.728;2023-02-28T03:54:44;0.70;;;0.30;;
12232;SDS011;6179;51.748;8.728;2023-02-28T04:00:55;0.87;;;0.33;;
12232;SDS011;6179;51.748;8.728;2023-02-28T04:07:10;0.90;;;0.30;;
12232;SDS011;6179;51.748;8.728;2023-02-28T04:13:12;0.40;;;0.40;;
12232;SDS011;6179;51.748;8.728;2023-02-28T04:19:13;0.37;;;0.37;;
12232;SDS011;6179;51.748;8.728;2023-02-28T04:25:15;1.10;;;0.50;;
12232;SDS011;6179;51.748;8.728;2023-02-28T04:31:16;1.43;;;0.77;;
12232;SDS011;6179;51.748;8.728;2023-02-28T04:37:16;0.30;;;0.30;;
12232;SDS011;6179;51.748;8.728;2023-02-28T04:43:17;1.43;;;0.60;;
12232;SDS011;6179;51.748;8.728;2023-02-28T04:49:18;0.60;;;0.30;;
12232;SDS011;6179;51.748;8.728;2023-02-28T04:55:19;1.30;;;0.90;;
12232;SDS011;6179;51.748;8.728;2023-02-28T05:01:24;1.57;;;0.50;;
12232;SDS011;6179;51.748;8.728;2023-02-28T05:07:33;3.43;;;0.60;;
12232;SDS011;6179;51.748;8.728;2023-02-28T05:13:34;2.33;;;1.03;;
12232;SDS011;6179;51.748;8.728;2023-02-28T05:19:35;3.13;;;1.03;;
12232;SDS011;6179;51.748;8.728;2023-02-28T05:25:36;0.70;;;0.67;;
12232;SDS011;6179;51.748;8.728;2023-02-28T05:31:37;1.03;;;0.90;;
12232;SDS011;6179;51.748;8.728;2023-02-28T05:37:38;0.60;;;0.60;;
12232;SDS011;6179;51.748;8.728;2023-02-28T05:43:39;1.20;;;1.10;;
12232;SDS011;6179;51.748;8.728;2023-02-28T05:49:41;0.67;;;0.50;;
12232;SDS011;6179;51.748;8.728;2023-02-28T05:55:42;0.50;;;0.50;;
12232;SDS011;6179;51.748;8.728;2023-02-28T06:01:43;1.57;;;0.50;;
12232;SDS011;6179;51.748;8.728;2023-02-28T06:07:48;0.73;;;0.73;;
12232;SDS011;6179;51.748;8.728;2023-02-28T06:13:48;2.70;;;0.80;;
12232;SDS011;6179;51.748;8.728;2023-02-28T06:19:49;0.93;;;0.73;;
12232;SDS011;6179;51.748;8.728;2023-02-28T06:25:50;0.50;;;0.40;;
12232;SDS011;6179;51.748;8.728;2023-02-28T06:31:52;6.03;;;0.60;;
12232;SDS011;6179;51.748;8.728;2023-02-28T06:37:53;1.23;;;1.07;;
12232;SDS011;6179;51.748;8.728;2023-02-28T06:43:54;1.53;;;0.70;;
12232;SDS011;6179;51.748;8.728;2023-02-28T06:49:58;3.27;;;2.20;;
12232;SDS011;6179;51.748;8.728;2023-02-28T06:56:06;6.40;;;2.60;;
12232;SDS011;6179;51.748;8.728;2023-02-28T07:02:15;5.70;;;1.97;;
12232;SDS011;6179;51.748;8.728;2023-02-28T07:08:16;3.10;;;1.23;;
12232;SDS011;6179;51.748;8.728;2023-02-28T07:14:17;2.37;;;1.33;;
12232;SDS011;6179;51.748;8.728;2023-02-28T07:20:18;9.73;;;1.70;;
12232;SDS011;6179;51.748;8.728;2023-02-28T07:26:20;2.03;;;1.20;;
12232;SDS011;6179;51.748;8.728;2023-02-28T07:32:21;2.13;;;0.70;;
12232;SDS011;6179;51.748;8.728;2023-02-28T07:38:22;1.60;;;0.80;;
12232;SDS011;6179;51.748;8.728;2023-02-28T07:44:23;1.83;;;0.90;;
12232;SDS011;6179;51.748;8.728;2023-02-28T07:50:23;7.07;;;1.17;;
12232;SDS011;6179;51.748;8.728;2023-02-28T07:56:24;3.50;;;0.70;;
12232;SDS011;6179;51.748;8.728;2023-02-28T08:02:25;4.57;;;1.33;;
12232;SDS011;6179;51.748;8.728;2023-02-28T08:08:26;2.83;;;1.43;;
12232;SDS011;6179;51.748;8.728;2023-02-28T08:14:31;7.60;;;0.80;;
12232;SDS011;6179;51.748;8.728;2023-02-28T08:20:31;1.27;;;0.60;;
12232;SDS011;6179;51.748;8.728;2023-02-28T08:26:32;3.47;;;0.80;;
12232;SDS011;6179;51.748;8.728;2023-02-28T08:32:33;2.10;;;0.70;;
12232;SDS011;6179;51.748;8.728;2023-02-28T08:38:35;1.00;;;0.60;;
12232;SDS011;6179;51.748;8.728;2023-02-28T08:44:36;2.23;;;0.70;;
12232;SDS011;6179;51.748;8.728;2023-02-28T08:50:37;1.47;;;0.70;;
12232;SDS011;6179;51.748;8.728;2023-02-28T08:56:38;1.03;;;0.60;;
12232;SDS011;6179;51.748;8.728;2023-02-28T09:02:39;2.53;;;0.70;;
12232;SDS011;6179;51.748;8.728;2023-02-28T09:08:42;1.57;;;0.50;;
12232;SDS011;6179;51.748;8.728;2023-02-28T09:14:44;0.60;;;0.60;;
12232;SDS011;6179;51.748;8.728;2023-02-28T09:20:44;0.50;;;0.50;;
12232;SDS011;6179;51.748;8.728;2023-02-28T09:26:46;2.17;;;0.60;;
12232;SDS011;6179;51.748;8.728;2023-02-28T09:32:46;0.50;;;0.40;;
12232;SDS011;6179;51.748;8.728;2023-02-28T09:38:51;9.90;;;1.17;;
12232;SDS011;6179;51.748;8.728;2023-02-28T09:44:53;0.93;;;0.83;;
12232;SDS011;6179;51.748;8.728;2023-02-28T09:57:36;0.97;;;0.40;;
12232;SDS011;6179;51.748;8.728;2023-02-28T10:04:32;2.13;;;0.80;;
12232;SDS011;6179;51.748;8.728;2023-02-28T10:10:27;9.70;;;0.90;;
12232;SDS011;6179;51.748;8.728;2023-02-28T10:16:48;2.27;;;1.00;;
12232;SDS011;6179;51.748;8.728;2023-02-28T10:23:04;1.50;;;0.90;;
12232;SDS011;6179;51.748;8.728;2023-02-28T10:29:32;0.50;;;0.50;;
12232;SDS011;6179;51.748;8.728;2023-02-28T10:35:33;2.33;;;1.03;;
12232;SDS011;6179;51.748;8.728;2023-02-28T10:41:34;1.03;;;0.60;;
12232;SDS011;6179;51.748;8.728;2023-02-28T10:47:51;3.43;;;0.70;;
12232;SDS011;6179;51.748;8.728;2023-02-28T10:53:56;3.50;;;0.60;;
12232;SDS011;6179;51.748;8.728;2023-02-28T11:00:07;1.40;;;0.87;;
12232;SDS011;6179;51.748;8.728;2023-02-28T11:06:20;6.23;;;0.87;;
12232;SDS011;6179;51.748;8.728;2023-02-28T11:12:26;1.17;;;0.80;;
12232;SDS011;6179;51.748;8.728;2023-02-28T11:24:51;0.60;;;0.60;;
12232;SDS011;6179;51.748;8.728;2023-02-28T11:31:03;0.60;;;0.60;;
12232;SDS011;6179;51.748;8.728;2023-02-28T11:37:13;1.47;;;0.97;;
12232;SDS011;6179;51.748;8.728;2023-02-28T11:56:38;2.10;;;0.50;;
12232;SDS011;6179;51.748;8.728;2023-02-28T12:28:32;10.87;;;0.60;;
12232;SDS011;6179;51.748;8.728;2023-02-28T12:34:42;0.97;;;0.70;;
12232;SDS011;6179;51.748;8.728;2023-02-28T12:47:03;2.63;;;0.80;;
12232;SDS011;6179;51.748;8.728;2023-02-28T13:06:00;0.97;;;0.90;;
12232;SDS011;6179;51.748;8.728;2023-02-28T13:12:34;5.83;;;1.10;;
12232;SDS011;6179;51.748;8.728;2023-02-28T13:24:50;4.30;;;0.70;;
12232;SDS011;6179;51.748;8.728;2023-02-28T13:31:02;1.03;;;0.73;;
12232;SDS011;6179;51.748;8.728;2023-02-28T13:43:58;1.33;;;0.60;;
12232;SDS011;6179;51.748;8.728;2023-02-28T14:09:25;1.27;;;0.97;;
12232;SDS011;6179;51.748;8.728;2023-02-28T14:21:34;3.67;;;0.80;;
12232;SDS011;6179;51.748;8.728;2023-02-28T14:27:44;2.40;;;0.87;;
12232;SDS011;6179;51.748;8.728;2023-02-28T14:34:14;1.70;;;0.83;;
12232;SDS011;6179;51.748;8.728;2023-02-28T14:46:38;3.20;;;1.00;;
12232;SDS011;6179;51.748;8.728;2023-02-28T14:52:42;1.97;;;0.83;;
12232;SDS011;6179;51.748;8.728;2023-02-28T14:58:50;0.73;;;0.60;;
12232;SDS011;6179;51.748;8.728;2023-02-28T15:04:58;1.60;;;0.63;;
12232;SDS011;6179;51.748;8.728;2023-02-28T15:11:24;1.93;;;0.90;;
12232;SDS011;6179;51.748;8.728;2023-02-28T15:17:25;1.63;;;0.70;;
12232;SDS011;6179;51.748;8.728;2023-02-28T15:23:26;5.53;;;0.77;;
12232;SDS011;6179;51.748;8.728;2023-02-28T15:29:29;1.47;;;0.80;;
12232;SDS011;6179;51.748;8.728;2023-02-28T15:35:42;1.10;;;0.83;;
12232;SDS011;6179;51.748;8.728;2023-02-28T15:41:43;1.10;;;0.80;;
12232;SDS011;6179;51.748;8.728;2023-02-28T15:47:45;0.93;;;0.70;;
12232;SDS011;6179;51.748;8.728;2023-02-28T15:54:00;2.90;;;0.97;;
12232;SDS011;6179;51.748;8.728;2023-02-28T16:00:22;5.13;;;0.90;;
12232;SDS011;6179;51.748;8.728;2023-02-28T16:06:30;1.67;;;0.80;;
12232;SDS011;6179;51.748;8.728;2023-02-28T16:12:42;1.47;;;0.93;;
12232;SDS011;6179;51.748;8.728;2023-02-28T16:18:43;2.03;;;1.23;;
12232;SDS011;6179;51.748;8.728;2023-02-28T16:24:44;2.80;;;0.90;;
12232;SDS011;6179;51.748;8.728;2023-02-28T16:30:44;1.33;;;1.23;;
12232;SDS011;6179;51.748;8.728;2023-02-28T16:36:46;1.97;;;1.60;;
12232;SDS011;6179;51.748;8.728;2023-02-28T16:42:50;1.50;;;1.50;;
12232;SDS011;6179;51.748;8.728;2023-02-28T16:48:54;1.57;;;1.20;;
12232;SDS011;6179;51.748;8.728;2023-02-28T16:54:55;0.80;;;0.77;;
12232;SDS011;6179;51.748;8.728;2023-02-28T17:00:56;1.50;;;0.90;;
12232;SDS011;6179;51.748;8.728;2023-02-28T17:06:57;2.67;;;0.80;;
12232;SDS011;6179;51.748;8.728;2023-02-28T17:12:58;1.37;;;1.20;;
12232;SDS011;6179;51.748;8.728;2023-02-28T17:18:59;2.30;;;0.80;;
12232;SDS011;6179;51.748;8.728;2023-02-28T17:25:07;3.00;;;1.50;;
12232;SDS011;6179;51.748;8.728;2023-02-28T17:31:09;1.47;;;1.37;;
12232;SDS011;6179;51.748;8.728;2023-02-28T17:37:10;6.00;;;1.53;;
12232;SDS011;6179;51.748;8.728;2023-02-28T17:43:11;21.60;;;2.07;;
12232;SDS011;6179;51.748;8.728;2023-02-28T17:49:12;1.20;;;1.10;;
12232;SDS011;6179;51.748;8.728;2023-02-28T17:55:13;7.70;;;2.70;;
12232;SDS011;6179;51.748;8.728;2023-02-28T18:01:14;5.20;;;2.23;;
12232;SDS011;6179;51.748;8.728;2023-02-28T18:07:15;5.30;;;2.47;;
12232;SDS011;6179;51.748;8.728;2023-02-28T18:13:17;3.73;;;1.33;;
12232;SDS011;6179;51.748;8.728;2023-02-28T18:19:18;0.90;;;0.90;;
12232;SDS011;6179;51.748;8.728;2023-02-28T18:25:20;2.17;;;1.30;;
12232;SDS011;6179;51.748;8.728;2023-02-28T18:31:22;7.30;;;1.63;;
12232;SDS011;6179;51.748;8.728;2023-02-28T18:37:22;3.90;;;1.00;;
12232;SDS011;6179;51.748;8.728;2023-02-28T18:43:24;12.70;;;2.20;;
12232;SDS011;6179;51.748;8.728;2023-02-28T18:49:25;2.10;;;1.00;;
12232;SDS011;6179;51.748;8.728;2023-02-28T18:55:26;3.20;;;1.40;;
12232;SDS011;6179;51.748;8.728;2023-02-28T19:01:27;3.13;;;1.07;;
12232;SDS011;6179;51.748;8.728;2023-02-28T19:07:31;2.10;;;1.97;;
12232;SDS011;6179;51.748;8.728;2023-02-28T19:13:33;6.13;;;2.10;;
12232;SDS011;6179;51.748;8.728;2023-02-28T19:19:34;5.13;;;1.37;;
12232;SDS011;6179;51.748;8.728;2023-02-28T19:25:38;4.10;;;1.90;;
12232;SDS011;6179;51.748;8.728;2023-02-28T19:31:41;2.70;;;2.10;;
12232;SDS011;6179;51.748;8.728;2023-02-28T19:37:42;8.23;;;3.70;;
12232;SDS011;6179;51.748;8.728;2023-02-28T19:43:43;5.30;;;2.17;;
12232;SDS011;6179;51.748;8.728;2023-02-28T19:49:44;4.80;;;3.53;;
12232;SDS011;6179;51.748;8.728;2023-02-28T19:55:45;2.73;;;2.23;;
12232;SDS011;6179;51.748;8.728;2023-02-28T20:01:46;7.90;;;2.30;;
12232;SDS011;6179;51.748;8.728;2023-02-28T20:07:47;2.30;;;1.20;;
12232;SDS011;6179;51.748;8.728;2023-02-28T20:13:51;11.93;;;3.30;;
12232;SDS011;6179;51.748;8.728;2023-02-28T20:19:52;25.37;;;10.90;;
12232;SDS011;6179;51.748;8.728;2023-02-28T20:25:57;17.70;;;6.73;;
12232;SDS011;6179;51.748;8.728;2023-02-28T20:31:59;11.37;;;6.00;;
12232;SDS011;6179;51.748;8.728;2023-02-28T20:38:00;15.30;;;7.10;;
12232;SDS011;6179;51.748;8.728;2023-02-28T20:44:01;11.47;;;6.00;;
12232;SDS011;6179;51.748;8.728;2023-02-28T20:50:02;18.57;;;8.53;;
12232;SDS011;6179;51.748;8.728;2023-02-28T20:56:10;20.33;;;7.00;;
12232;SDS011;6179;51.748;8.728;2023-02-28T21:02:17;11.07;;;5.83;;
12232;SDS011;6179;51.748;8.728;2023-02-28T21:08:20;13.10;;;3.03;;
12232;SDS011;6179;51.748;8.728;2023-02-28T21:14:21;6.10;;;4.50;;
12232;SDS011;6179;51.748;8.728;2023-02-28T21:20:24;12.60;;;6.37;;
12232;SDS011;6179;51.748;8.728;2023-02-28T21:26:25;8.83;;;3.97;;
12232;SDS011;6179;51.748;8.728;2023-02-28T21:32:26;11.60;;;5.40;;
12232;SDS011;6179;51.748;8.728;2023-02-28T21:38:27;18.97;;;5.50;;
12232;SDS011;6179;51.748;8.728;2023-02-28T21:44:28;10.87;;;3.47;;
12232;SDS011;6179;51.748;8.728;2023-02-28T21:50:31;17.27;;;4.47;;
12232;SDS011;6179;51.748;8.728;2023-02-28T21:56:32;27.47;;;8.70;;
12232;SDS011;6179;51.748;8.728;2023-02-28T22:02:35;16.20;;;4.10;;
12232;SDS011;6179;51.748;8.728;2023-02-28T22:08:35;8.83;;;3.00;;
12232;SDS011;6179;51.748;8.728;2023-02-28T22:14:38;6.70;;;3.50;;
12232;SDS011;6179;51.748;8.728;2023-02-28T22:20:39;4.10;;;2.60;;
12232;SDS011;6179;51.748;8.728;2023-02-28T22:26:40;17.93;;;3.80;;
12232;SDS011;6179;51.748;8.728;2023-02-28T22:32:41;11.70;;;6.17;;
12232;SDS011;6179;51.748;8.728;2023-02-28T22:38:42;6.00;;;4.80;;
12232;SDS011;6179;51.748;8.728;2023-02-28T22:44:44;7.33;;;2.93;;
12232;SDS011;6179;51.748;8.728;2023-02-28T22:50:45;5.40;;;2.37;;
12232;SDS011;6179;51.748;8.728;2023-02-28T22:56:46;5.70;;;3.10;;
12232;SDS011;6179;51.748;8.728;2023-02-28T23:02:47;4.60;;;3.27;;
12232;SDS011;6179;51.748;8.728;2023-02-28T23:08:48;5.80;;;3.80;;
12232;SDS011;6179;51.748;8.728;2023-02-28T23:14:52;3.63;;;2.67;;
12232;SDS011;6179;51.748;8.728;2023-02-28T23:20:54;2.83;;;1.90;;
12232;SDS011;6179;51.748;8.728;2023-02-28T23:26:56;8.20;;;2.67;;
12232;SDS011;6179;51.748;8.728;2023-02-28T23:33:00;3.27;;;2.97;;
12232;SDS011;6179;51.748;8.728;2023-02-28T23:39:01;13.37;;;4.10;;
12232;SDS011;6179;51.748;8.728;2023-02-28T23:45:02;8.80;;;4.17;;
12232;SDS011;6179;51.748;8.728;2023-02-28T23:51:06;3.33;;;2.00;;
12232;SDS011;6179;51.748;8.728;2023-02-28T23:57:15;9.20;;;3.30;;
